KESCKUES

Guest
Details From KESC - Delta Co
To KUES - Waukesha Co
Flight Number -
Tags Decoded
Created
Modified
Stats Distance 169 nm / 313 km
Max Altitude 0 ft / 0 m
Waypoints 2
Social Downloads 1
Likes 0
Share VATSIM

Download

Looking for another format? Having issues loading an existing format? Contact us
Advertisement - Login to hide

Notes

Decoded

Route

KESC KUES

ID Type Via Altitude (ft/m) Position (lat/lon) Dist (leg/tot) Name
O KESC APT - 0 / 0 45.73211 / -87.08644 - / 0 nm
O KUES APT - 0 / 0 43.04392 / -88.23333 168 / 168 nm

Altitude Profile

Advertisement - Login to hide

Weather


0- 5 10 15 20 25 30 35+ Temperature / °C

Clouds and Precipitation
Forecast for 2018-10-23 18:00 UTC. Updated 5 hours ago

Ground ~20,000 ft ~40,000 ft Winds

KESC

Details ICAO KESC (ESC)
Name DELTA CO
Region United States
Timezone America/Detroit (UTC-4.0)
Stats Elevation 608 ft / 185 m (AMSL)
Location 45.723000° -87.092900°
Runways 2
Magnetic Variation 5.108° W

METAR

KESC 231956Z AUTO 02007KT 10SM SCT033 SCT044 08/00 A3029 RMK AO2 RAB17E31 SLP283 P0000 T00780000

Decode

TAF

Not found

Departure Runways

ID Width Length Bearing (true/mag) Surface Threshold Overrun Markings Lighting
09 151 ft / 46 m 6,486 ft / 1,977 m 90.88° / 95.99° CONCRETE 0 ft / 0 m 0 ft / 0 m PREC-APP EDGE THRESHOLD MALSR
18 98 ft / 30 m 5,000 ft / 1,524 m 180.90° / 186.01° CONCRETE 0 ft / 0 m 52 ft / 16 m APP EDGE THRESHOLD
27 151 ft / 46 m 6,486 ft / 1,977 m 270.90° / 276.01° CONCRETE 0 ft / 0 m 0 ft / 0 m APP EDGE THRESHOLD REIL-OMNI
36 98 ft / 30 m 5,000 ft / 1,524 m 0.90° / 6.01° CONCRETE 0 ft / 0 m 49 ft / 15 m APP EDGE THRESHOLD REIL-OMNI

KUES

Details ICAO KUES
Name Waukesha Co
Region United States
Timezone America/Chicago (UTC-5.0)
Stats Elevation 911 ft / 278 m (AMSL)
Location 43.040600° -88.236500°
Runways 2
Magnetic Variation 3.686° W

METAR

KUES 231945Z 29008KT 10SM SCT050 10/M01 A3030

Decode

TAF

TAF KUES 231720Z 2318/2418 31009KT P6SM SCT035 FM240000 VRB04KT P6SM FEW035 FM241200 04005KT P6SM SCT030

Decode

Destination Runways

ID Width Length Bearing (true/mag) Surface Threshold Overrun Markings Lighting
10 98 ft / 30 m 5,837 ft / 1,779 m 101.99° / 105.68° CONCRETE 0 ft / 0 m 0 ft / 0 m PREC-APP EDGE THRESHOLD SALS REIL-OMNI
18 75 ft / 23 m 3,602 ft / 1,098 m 185.25° / 188.94° ASPHALT 0 ft / 0 m 0 ft / 0 m APP EDGE THRESHOLD
28 98 ft / 30 m 5,837 ft / 1,779 m 282.00° / 285.69° CONCRETE 0 ft / 0 m 0 ft / 0 m PREC-APP EDGE THRESHOLD REIL-OMNI
36 75 ft / 23 m 3,602 ft / 1,098 m 5.25° / 8.94° ASPHALT 0 ft / 0 m 0 ft / 0 m APP EDGE THRESHOLD

Approach Navaids

Runway Type Ident Frequency Range Bearing (true/mag) Slope Elevation
10 LOC-ILS ISKC 109.50 MHz 18 nm / 33 km 102.00° / 105.68 ° - 911 ft / 278 m (AMSL)
10 OM OM - - 102.00° / 105.68 ° - 911 ft / 278 m (AMSL)
10 GS ISKC 109.50 MHz 10 nm / 19 km 103.00° / 106.68 ° 3.00° 897 ft / 273 m (AMSL)

Popular Alternatives